Terminal Aerodrome Forecast
Issued by NWS

Current Version | Previous Version | Text Only | Print | Product List | Glossary Off
Versions: 1 2 3 4 5 6 7 8 9 10 11 12 13 14 15 16

000
FTUS41 KILN 032143 AAA
TAFLUK
TAF AMD
KLUK 032143Z 0322/0418 26015G22KT P6SM SCT050
     FM032300 26012G20KT P6SM OVC040
     FM040200 26012KT P6SM OVC028
     FM040800 27010KT P6SM OVC018
     FM041500 27009KT P6SM BKN025=

USA.gov is the U.S. government's official web portal to all federal, state and local government web resources and services.